sensor_id;sensor_type;location;lat;lon;timestamp;pressure;altitude;pressure_sealevel;temperature;humidity
77212;BME280;66206;0.000;0.000;2023-02-15T00:00:46;99336.39;;;23.26;24.03
77212;BME280;66206;0.000;0.000;2023-02-15T00:03:14;99339.07;;;23.13;24.12
77212;BME280;66206;0.000;0.000;2023-02-15T00:05:42;99335.38;;;23.29;24.06
77212;BME280;66206;0.000;0.000;2023-02-15T00:08:08;99333.95;;;23.01;24.46
77212;BME280;66206;0.000;0.000;2023-02-15T00:10:35;99332.41;;;23.13;24.41
77212;BME280;66206;0.000;0.000;2023-02-15T00:13:02;99332.10;;;23.10;24.60
77212;BME280;66206;0.000;0.000;2023-02-15T00:15:28;99330.19;;;22.93;24.64
77212;BME280;66206;0.000;0.000;2023-02-15T00:17:56;99324.49;;;22.47;24.99
77212;BME280;66206;0.000;0.000;2023-02-15T00:20:23;99322.32;;;22.55;25.30
77212;BME280;66206;0.000;0.000;2023-02-15T00:22:49;99320.37;;;22.50;25.22
77212;BME280;66206;0.000;0.000;2023-02-15T00:25:16;99318.54;;;22.32;25.27
77212;BME280;66206;0.000;0.000;2023-02-15T00:27:43;99316.91;;;22.33;25.29
77212;BME280;66206;0.000;0.000;2023-02-15T00:30:10;99317.07;;;22.43;25.12
77212;BME280;66206;0.000;0.000;2023-02-15T00:32:37;99317.45;;;22.31;25.16
77212;BME280;66206;0.000;0.000;2023-02-15T00:35:03;99319.70;;;22.30;25.21
77212;BME280;66206;0.000;0.000;2023-02-15T00:37:30;99316.40;;;22.24;25.18
77212;BME280;66206;0.000;0.000;2023-02-15T00:39:57;99316.71;;;22.43;25.06
77212;BME280;66206;0.000;0.000;2023-02-15T00:42:24;99313.95;;;22.30;25.11
77212;BME280;66206;0.000;0.000;2023-02-15T00:44:51;99313.94;;;22.45;25.08
77212;BME280;66206;0.000;0.000;2023-02-15T00:47:18;99315.42;;;22.21;25.24
77212;BME280;66206;0.000;0.000;2023-02-15T00:49:44;99311.80;;;22.16;25.25
77212;BME280;66206;0.000;0.000;2023-02-15T00:52:11;99312.05;;;22.08;25.27
77212;BME280;66206;0.000;0.000;2023-02-15T00:54:38;99315.61;;;21.84;25.49
77212;BME280;66206;0.000;0.000;2023-02-15T00:57:04;99312.34;;;22.08;25.35
77212;BME280;66206;0.000;0.000;2023-02-15T00:59:31;99310.80;;;21.70;25.67
77212;BME280;66206;0.000;0.000;2023-02-15T01:01:58;99308.69;;;22.04;25.33
77212;BME280;66206;0.000;0.000;2023-02-15T01:04:24;99309.56;;;21.70;25.49
77212;BME280;66206;0.000;0.000;2023-02-15T01:06:51;99311.60;;;21.65;25.54
77212;BME280;66206;0.000;0.000;2023-02-15T01:09:18;99309.26;;;21.87;25.37
77212;BME280;66206;0.000;0.000;2023-02-15T01:11:44;99309.04;;;21.66;25.49
77212;BME280;66206;0.000;0.000;2023-02-15T01:14:11;99305.15;;;21.75;25.71
77212;BME280;66206;0.000;0.000;2023-02-15T01:16:38;99302.10;;;21.63;25.95
77212;BME280;66206;0.000;0.000;2023-02-15T01:19:05;99302.16;;;21.64;26.09
77212;BME280;66206;0.000;0.000;2023-02-15T01:21:31;99300.84;;;21.76;25.99
77212;BME280;66206;0.000;0.000;2023-02-15T01:23:58;99299.46;;;21.83;26.06
77212;BME280;66206;0.000;0.000;2023-02-15T01:26:25;99294.39;;;21.60;26.16
77212;BME280;66206;0.000;0.000;2023-02-15T01:28:51;99291.61;;;21.70;26.11
77212;BME280;66206;0.000;0.000;2023-02-15T01:31:18;99293.39;;;21.80;25.96
77212;BME280;66206;0.000;0.000;2023-02-15T01:33:45;99295.80;;;21.70;26.09
77212;BME280;66206;0.000;0.000;2023-02-15T01:36:13;99293.19;;;21.73;26.07
77212;BME280;66206;0.000;0.000;2023-02-15T01:38:40;99291.49;;;21.57;26.26
77212;BME280;66206;0.000;0.000;2023-02-15T01:41:07;99287.06;;;21.50;26.23
77212;BME280;66206;0.000;0.000;2023-02-15T01:43:41;99281.12;;;21.63;26.17
77212;BME280;66206;0.000;0.000;2023-02-15T01:46:03;99278.77;;;21.85;26.05
77212;BME280;66206;0.000;0.000;2023-02-15T01:48:30;99274.59;;;21.66;26.10
77212;BME280;66206;0.000;0.000;2023-02-15T01:50:57;99271.16;;;21.84;26.05
77212;BME280;66206;0.000;0.000;2023-02-15T01:53:26;99266.18;;;21.64;26.09
77212;BME280;66206;0.000;0.000;2023-02-15T01:55:54;99265.79;;;21.66;26.09
77212;BME280;66206;0.000;0.000;2023-02-15T01:58:22;99263.98;;;21.66;26.12
77212;BME280;66206;0.000;0.000;2023-02-15T02:00:49;99258.60;;;21.76;26.09
77212;BME280;66206;0.000;0.000;2023-02-15T02:03:16;99258.39;;;21.68;26.16
77212;BME280;66206;0.000;0.000;2023-02-15T02:05:43;99251.88;;;21.76;26.00
77212;BME280;66206;0.000;0.000;2023-02-15T02:08:10;99249.61;;;21.53;26.26
77212;BME280;66206;0.000;0.000;2023-02-15T02:10:37;99245.10;;;21.60;26.15
77212;BME280;66206;0.000;0.000;2023-02-15T02:13:04;99242.98;;;21.68;26.05
77212;BME280;66206;0.000;0.000;2023-02-15T02:15:35;99241.78;;;21.76;25.98
77212;BME280;66206;0.000;0.000;2023-02-15T02:18:03;99249.14;;;21.55;26.13
77212;BME280;66206;0.000;0.000;2023-02-15T02:20:38;99250.26;;;21.58;26.09
77212;BME280;66206;0.000;0.000;2023-02-15T02:23:08;99251.15;;;21.59;26.05
77212;BME280;66206;0.000;0.000;2023-02-15T02:26:04;99254.71;;;21.49;26.12
77212;BME280;66206;0.000;0.000;2023-02-15T02:27:56;99251.67;;;21.67;26.02
77212;BME280;66206;0.000;0.000;2023-02-15T02:30:26;99253.39;;;21.63;25.99
77212;BME280;66206;0.000;0.000;2023-02-15T02:32:51;99249.31;;;21.60;25.93
77212;BME280;66206;0.000;0.000;2023-02-15T02:35:14;99243.99;;;21.45;26.07
77212;BME280;66206;0.000;0.000;2023-02-15T02:37:42;99240.20;;;21.56;25.98
77212;BME280;66206;0.000;0.000;2023-02-15T02:40:08;99238.41;;;21.48;25.97
77212;BME280;66206;0.000;0.000;2023-02-15T02:42:34;99236.37;;;21.47;26.00
77212;BME280;66206;0.000;0.000;2023-02-15T02:45:03;99231.36;;;21.68;25.77
77212;BME280;66206;0.000;0.000;2023-02-15T02:47:32;99235.94;;;21.44;26.02
77212;BME280;66206;0.000;0.000;2023-02-15T02:49:58;99232.76;;;21.43;26.01
77212;BME280;66206;0.000;0.000;2023-02-15T02:52:41;99231.57;;;21.37;25.99
77212;BME280;66206;0.000;0.000;2023-02-15T02:54:52;99230.29;;;21.33;25.95
77212;BME280;66206;0.000;0.000;2023-02-15T02:57:20;99230.63;;;21.49;25.90
77212;BME280;66206;0.000;0.000;2023-02-15T02:59:48;99229.53;;;21.35;26.05
77212;BME280;66206;0.000;0.000;2023-02-15T03:02:18;99233.69;;;21.47;25.91
77212;BME280;66206;0.000;0.000;2023-02-15T03:04:43;99229.34;;;21.28;25.97
77212;BME280;66206;0.000;0.000;2023-02-15T03:07:12;99227.43;;;21.42;25.81
77212;BME280;66206;0.000;0.000;2023-02-15T03:09:42;99222.34;;;21.17;26.09
77212;BME280;66206;0.000;0.000;2023-02-15T03:12:11;99222.04;;;21.36;25.91
77212;BME280;66206;0.000;0.000;2023-02-15T03:14:39;99218.54;;;21.15;26.14
77212;BME280;66206;0.000;0.000;2023-02-15T03:17:07;99219.59;;;21.15;26.00
77212;BME280;66206;0.000;0.000;2023-02-15T03:19:35;99221.21;;;21.02;26.02
77212;BME280;66206;0.000;0.000;2023-02-15T03:22:03;99220.74;;;20.94;26.11
77212;BME280;66206;0.000;0.000;2023-02-15T03:24:32;99220.19;;;21.27;25.86
77212;BME280;66206;0.000;0.000;2023-02-15T03:26:59;99220.33;;;21.23;25.89
77212;BME280;66206;0.000;0.000;2023-02-15T03:29:30;99217.79;;;21.26;25.84
77212;BME280;66206;0.000;0.000;2023-02-15T03:31:58;99220.13;;;21.14;25.89
77212;BME280;66206;0.000;0.000;2023-02-15T03:34:26;99222.28;;;21.37;25.69
77212;BME280;66206;0.000;0.000;2023-02-15T03:36:55;99226.83;;;21.24;25.82
77212;BME280;66206;0.000;0.000;2023-02-15T03:39:19;99231.49;;;21.17;25.81
77212;BME280;66206;0.000;0.000;2023-02-15T03:41:51;99225.82;;;21.17;25.82
77212;BME280;66206;0.000;0.000;2023-02-15T03:44:17;99224.71;;;21.20;25.82
77212;BME280;66206;0.000;0.000;2023-02-15T03:46:46;99223.59;;;21.32;25.85
77212;BME280;66206;0.000;0.000;2023-02-15T03:49:16;99227.14;;;21.25;25.65
77212;BME280;66206;0.000;0.000;2023-02-15T03:51:40;99224.88;;;21.20;25.81
77212;BME280;66206;0.000;0.000;2023-02-15T03:54:08;99220.50;;;21.24;25.73
77212;BME280;66206;0.000;0.000;2023-02-15T03:56:37;99221.13;;;21.42;25.58
77212;BME280;66206;0.000;0.000;2023-02-15T03:59:05;99224.18;;;21.40;25.50
77212;BME280;66206;0.000;0.000;2023-02-15T04:01:33;99224.88;;;21.27;25.73
77212;BME280;66206;0.000;0.000;2023-02-15T04:04:01;99231.88;;;21.27;25.48
77212;BME280;66206;0.000;0.000;2023-02-15T04:06:29;99235.50;;;21.17;25.60
77212;BME280;66206;0.000;0.000;2023-02-15T04:08:55;99237.56;;;21.19;25.62
77212;BME280;66206;0.000;0.000;2023-02-15T04:11:22;99240.18;;;21.14;25.65
77212;BME280;66206;0.000;0.000;2023-02-15T04:13:49;99241.87;;;21.22;25.47
77212;BME280;66206;0.000;0.000;2023-02-15T04:16:15;99238.60;;;21.23;25.44
77212;BME280;66206;0.000;0.000;2023-02-15T04:18:42;99237.60;;;21.37;25.24
77212;BME280;66206;0.000;0.000;2023-02-15T04:21:09;99239.57;;;21.33;25.26
77212;BME280;66206;0.000;0.000;2023-02-15T04:23:36;99240.59;;;21.53;25.03
77212;BME280;66206;0.000;0.000;2023-02-15T04:26:03;99231.73;;;21.74;24.92
77212;BME280;66206;0.000;0.000;2023-02-15T04:28:29;99233.40;;;21.67;24.87
77212;BME280;66206;0.000;0.000;2023-02-15T04:30:56;99238.32;;;21.75;24.75
77212;BME280;66206;0.000;0.000;2023-02-15T04:33:23;99245.37;;;21.96;24.56
77212;BME280;66206;0.000;0.000;2023-02-15T04:35:49;99246.49;;;22.02;24.46
77212;BME280;66206;0.000;0.000;2023-02-15T04:38:16;99246.79;;;21.97;24.31
77212;BME280;66206;0.000;0.000;2023-02-15T04:40:43;99244.60;;;22.07;24.19
77212;BME280;66206;0.000;0.000;2023-02-15T04:43:09;99245.14;;;22.12;24.17
77212;BME280;66206;0.000;0.000;2023-02-15T04:45:36;99245.32;;;22.19;24.16
77212;BME280;66206;0.000;0.000;2023-02-15T04:48:03;99245.99;;;22.20;24.13
77212;BME280;66206;0.000;0.000;2023-02-15T04:50:29;99243.22;;;22.13;24.12
77212;BME280;66206;0.000;0.000;2023-02-15T04:52:56;99238.46;;;22.14;24.10
77212;BME280;66206;0.000;0.000;2023-02-15T04:55:23;99233.39;;;22.24;24.14
77212;BME280;66206;0.000;0.000;2023-02-15T04:57:49;99230.54;;;22.28;24.10
77212;BME280;66206;0.000;0.000;2023-02-15T05:00:16;99226.74;;;22.29;24.07
77212;BME280;66206;0.000;0.000;2023-02-15T05:02:43;99232.68;;;22.31;24.09
77212;BME280;66206;0.000;0.000;2023-02-15T05:05:10;99228.68;;;22.27;24.14
77212;BME280;66206;0.000;0.000;2023-02-15T05:07:36;99227.20;;;22.37;24.13
77212;BME280;66206;0.000;0.000;2023-02-15T05:10:03;99225.18;;;22.16;24.17
77212;BME280;66206;0.000;0.000;2023-02-15T05:12:30;99222.00;;;22.40;24.16
77212;BME280;66206;0.000;0.000;2023-02-15T05:14:57;99219.11;;;22.27;24.20
77212;BME280;66206;0.000;0.000;2023-02-15T05:17:23;99213.28;;;22.37;24.20
77212;BME280;66206;0.000;0.000;2023-02-15T05:19:50;99209.31;;;22.26;24.28
77212;BME280;66206;0.000;0.000;2023-02-15T05:22:17;99204.89;;;22.09;24.43
77212;BME280;66206;0.000;0.000;2023-02-15T05:24:43;99202.51;;;22.05;24.47
77212;BME280;66206;0.000;0.000;2023-02-15T05:27:10;99199.37;;;21.82;24.59
77212;BME280;66206;0.000;0.000;2023-02-15T05:29:37;99202.46;;;22.12;24.47
77212;BME280;66206;0.000;0.000;2023-02-15T05:32:04;99200.11;;;21.97;24.58
77212;BME280;66206;0.000;0.000;2023-02-15T05:34:31;99197.67;;;22.13;24.46
77212;BME280;66206;0.000;0.000;2023-02-15T05:36:57;99198.76;;;21.87;24.60
77212;BME280;66206;0.000;0.000;2023-02-15T05:39:24;99200.72;;;21.77;24.68
77212;BME280;66206;0.000;0.000;2023-02-15T05:41:51;99205.36;;;21.79;24.59
77212;BME280;66206;0.000;0.000;2023-02-15T05:44:17;99207.91;;;21.78;24.63
77212;BME280;66206;0.000;0.000;2023-02-15T05:46:44;99206.53;;;21.80;24.58
77212;BME280;66206;0.000;0.000;2023-02-15T05:49:11;99205.08;;;22.04;24.44
77212;BME280;66206;0.000;0.000;2023-02-15T05:51:37;99204.74;;;21.75;24.65
77212;BME280;66206;0.000;0.000;2023-02-15T05:54:04;99201.82;;;21.78;24.62
77212;BME280;66206;0.000;0.000;2023-02-15T05:56:31;99202.53;;;21.85;24.61
77212;BME280;66206;0.000;0.000;2023-02-15T05:58:57;99201.63;;;21.66;24.64
77212;BME280;66206;0.000;0.000;2023-02-15T06:01:24;99204.72;;;21.69;24.69
77212;BME280;66206;0.000;0.000;2023-02-15T06:03:51;99200.07;;;21.70;24.68
77212;BME280;66206;0.000;0.000;2023-02-15T06:06:18;99197.97;;;21.63;24.64
77212;BME280;66206;0.000;0.000;2023-02-15T06:08:44;99196.01;;;21.67;24.71
77212;BME280;66206;0.000;0.000;2023-02-15T06:11:11;99191.70;;;21.73;24.67
77212;BME280;66206;0.000;0.000;2023-02-15T06:13:38;99191.28;;;21.67;24.72
77212;BME280;66206;0.000;0.000;2023-02-15T06:16:05;99188.81;;;21.86;24.51
77212;BME280;66206;0.000;0.000;2023-02-15T06:18:31;99187.22;;;21.80;24.50
77212;BME280;66206;0.000;0.000;2023-02-15T06:20:58;99188.82;;;21.84;24.43
77212;BME280;66206;0.000;0.000;2023-02-15T06:23:25;99189.03;;;21.94;24.36
77212;BME280;66206;0.000;0.000;2023-02-15T06:25:52;99192.50;;;22.01;24.22
77212;BME280;66206;0.000;0.000;2023-02-15T06:28:19;99194.06;;;21.98;24.17
77212;BME280;66206;0.000;0.000;2023-02-15T06:30:46;99198.02;;;22.01;24.11
77212;BME280;66206;0.000;0.000;2023-02-15T06:33:12;99199.39;;;22.10;24.04
77212;BME280;66206;0.000;0.000;2023-02-15T06:35:39;99205.63;;;22.11;23.99
77212;BME280;66206;0.000;0.000;2023-02-15T06:38:06;99210.60;;;22.25;23.99
77212;BME280;66206;0.000;0.000;2023-02-15T06:40:32;99212.82;;;22.14;23.92
77212;BME280;66206;0.000;0.000;2023-02-15T06:42:59;99214.77;;;22.15;24.01
77212;BME280;66206;0.000;0.000;2023-02-15T06:45:26;99210.41;;;22.23;23.98
77212;BME280;66206;0.000;0.000;2023-02-15T06:47:52;99212.18;;;22.26;23.97
77212;BME280;66206;0.000;0.000;2023-02-15T06:50:19;99212.99;;;22.12;24.04
77212;BME280;66206;0.000;0.000;2023-02-15T06:52:46;99216.62;;;22.08;24.02
77212;BME280;66206;0.000;0.000;2023-02-15T06:55:12;99215.47;;;22.15;24.01
77212;BME280;66206;0.000;0.000;2023-02-15T06:57:39;99219.38;;;22.13;24.04
77212;BME280;66206;0.000;0.000;2023-02-15T07:00:07;99222.65;;;22.08;24.05
77212;BME280;66206;0.000;0.000;2023-02-15T07:02:34;99223.32;;;22.13;24.11
77212;BME280;66206;0.000;0.000;2023-02-15T07:05:00;99223.76;;;22.09;24.12
77212;BME280;66206;0.000;0.000;2023-02-15T07:07:27;99219.02;;;22.15;24.03
77212;BME280;66206;0.000;0.000;2023-02-15T07:09:53;99214.26;;;21.92;24.16
77212;BME280;66206;0.000;0.000;2023-02-15T07:12:20;99208.99;;;21.89;24.08
77212;BME280;66206;0.000;0.000;2023-02-15T07:14:47;99208.59;;;22.04;24.31
77212;BME280;66206;0.000;0.000;2023-02-15T07:17:13;99210.79;;;21.87;25.99
77212;BME280;66206;0.000;0.000;2023-02-15T07:19:40;99209.20;;;21.77;26.21
77212;BME280;66206;0.000;0.000;2023-02-15T07:22:07;99207.85;;;21.68;25.93
77212;BME280;66206;0.000;0.000;2023-02-15T07:24:33;99212.75;;;21.80;25.81
77212;BME280;66206;0.000;0.000;2023-02-15T07:27:00;99209.12;;;21.79;25.72
77212;BME280;66206;0.000;0.000;2023-02-15T07:29:27;99210.41;;;21.73;25.96
77212;BME280;66206;0.000;0.000;2023-02-15T07:31:53;99212.73;;;21.71;25.85
77212;BME280;66206;0.000;0.000;2023-02-15T07:34:21;99214.58;;;21.43;26.05
77212;BME280;66206;0.000;0.000;2023-02-15T07:36:50;99212.28;;;21.68;25.89
77212;BME280;66206;0.000;0.000;2023-02-15T07:39:16;99208.60;;;21.79;25.88
77212;BME280;66206;0.000;0.000;2023-02-15T07:41:43;99205.56;;;21.70;25.78
77212;BME280;66206;0.000;0.000;2023-02-15T07:44:11;99201.96;;;21.70;25.81
77212;BME280;66206;0.000;0.000;2023-02-15T07:46:37;99201.98;;;21.85;25.58
77212;BME280;66206;0.000;0.000;2023-02-15T07:49:04;99206.03;;;21.86;25.52
77212;BME280;66206;0.000;0.000;2023-02-15T07:51:31;99205.70;;;21.95;25.54
77212;BME280;66206;0.000;0.000;2023-02-15T07:53:58;99203.30;;;21.90;25.44
77212;BME280;66206;0.000;0.000;2023-02-15T07:56:24;99202.84;;;21.89;25.33
77212;BME280;66206;0.000;0.000;2023-02-15T07:58:51;99201.80;;;21.89;25.32
77212;BME280;66206;0.000;0.000;2023-02-15T08:01:18;99201.22;;;21.99;25.24
77212;BME280;66206;0.000;0.000;2023-02-15T08:03:45;99197.99;;;21.98;25.26
77212;BME280;66206;0.000;0.000;2023-02-15T08:06:12;99194.51;;;22.31;26.09
77212;BME280;66206;0.000;0.000;2023-02-15T08:08:39;99194.62;;;22.34;25.75
77212;BME280;66206;0.000;0.000;2023-02-15T08:11:06;99198.42;;;22.24;25.91
77212;BME280;66206;0.000;0.000;2023-02-15T08:13:33;99197.14;;;22.40;25.26
77212;BME280;66206;0.000;0.000;2023-02-15T08:16:00;99197.56;;;22.46;25.20
77212;BME280;66206;0.000;0.000;2023-02-15T08:18:27;99195.94;;;22.45;25.24
77212;BME280;66206;0.000;0.000;2023-02-15T08:20:54;99200.15;;;22.76;25.16
77212;BME280;66206;0.000;0.000;2023-02-15T08:23:20;99199.69;;;22.83;25.07
77212;BME280;66206;0.000;0.000;2023-02-15T08:25:47;99199.25;;;22.75;25.30
77212;BME280;66206;0.000;0.000;2023-02-15T08:28:14;99199.79;;;22.73;26.36
77212;BME280;66206;0.000;0.000;2023-02-15T08:30:40;99201.69;;;22.95;25.48
77212;BME280;66206;0.000;0.000;2023-02-15T08:33:07;99202.73;;;23.27;25.73
77212;BME280;66206;0.000;0.000;2023-02-15T08:35:34;99200.01;;;23.43;24.74
77212;BME280;66206;0.000;0.000;2023-02-15T08:38:00;99193.83;;;23.34;24.70
77212;BME280;66206;0.000;0.000;2023-02-15T08:40:27;99188.57;;;23.28;24.60
77212;BME280;66206;0.000;0.000;2023-02-15T08:42:54;99188.87;;;23.25;24.59
77212;BME280;66206;0.000;0.000;2023-02-15T08:45:20;99192.86;;;23.29;24.62
77212;BME280;66206;0.000;0.000;2023-02-15T08:47:47;99199.92;;;23.37;24.33
77212;BME280;66206;0.000;0.000;2023-02-15T08:50:14;99200.39;;;23.51;24.29
77212;BME280;66206;0.000;0.000;2023-02-15T08:52:40;99210.12;;;23.56;24.20
77212;BME280;66206;0.000;0.000;2023-02-15T08:55:07;99211.00;;;23.72;24.13
77212;BME280;66206;0.000;0.000;2023-02-15T08:57:34;99212.99;;;23.43;24.58
77212;BME280;66206;0.000;0.000;2023-02-15T09:00:00;99209.87;;;23.48;23.94
77212;BME280;66206;0.000;0.000;2023-02-15T09:02:27;99211.59;;;23.67;23.95
77212;BME280;66206;0.000;0.000;2023-02-15T09:04:54;99211.18;;;23.77;23.84
77212;BME280;66206;0.000;0.000;2023-02-15T09:07:21;99209.68;;;23.63;23.98
77212;BME280;66206;0.000;0.000;2023-02-15T09:09:47;99207.86;;;23.62;23.89
77212;BME280;66206;0.000;0.000;2023-02-15T09:12:14;99203.56;;;23.73;23.76
77212;BME280;66206;0.000;0.000;2023-02-15T09:14:40;99206.78;;;23.48;23.86
77212;BME280;66206;0.000;0.000;2023-02-15T09:17:07;99208.67;;;23.69;23.81
77212;BME280;66206;0.000;0.000;2023-02-15T09:19:34;99206.14;;;23.59;23.78
77212;BME280;66206;0.000;0.000;2023-02-15T09:22:01;99201.10;;;23.64;23.83
77212;BME280;66206;0.000;0.000;2023-02-15T09:24:27;99198.87;;;23.57;24.04
77212;BME280;66206;0.000;0.000;2023-02-15T09:26:52;99197.26;;;23.69;23.90
77212;BME280;66206;0.000;0.000;2023-02-15T09:29:19;99197.76;;;23.77;23.80
77212;BME280;66206;0.000;0.000;2023-02-15T09:31:47;99198.13;;;24.00;23.51
77212;BME280;66206;0.000;0.000;2023-02-15T09:34:14;99197.72;;;24.16;23.31
77212;BME280;66206;0.000;0.000;2023-02-15T09:36:41;99196.73;;;24.27;23.21
77212;BME280;66206;0.000;0.000;2023-02-15T09:39:09;99193.50;;;24.23;23.20
77212;BME280;66206;0.000;0.000;2023-02-15T09:41:40;99198.94;;;24.29;23.12
77212;BME280;66206;0.000;0.000;2023-02-15T09:44:04;99203.90;;;24.57;23.29
77212;BME280;66206;0.000;0.000;2023-02-15T09:46:36;99207.96;;;24.82;22.79
77212;BME280;66206;0.000;0.000;2023-02-15T09:49:02;99206.17;;;25.12;22.52
77212;BME280;66206;0.000;0.000;2023-02-15T09:51:38;99210.87;;;24.77;22.96
77212;BME280;66206;0.000;0.000;2023-02-15T09:54:06;99214.99;;;24.45;23.63
77212;BME280;66206;0.000;0.000;2023-02-15T09:56:31;99213.40;;;24.17;23.27
77212;BME280;66206;0.000;0.000;2023-02-15T09:58:59;99214.86;;;24.69;22.84
77212;BME280;66206;0.000;0.000;2023-02-15T10:01:26;99216.89;;;24.69;22.86
77212;BME280;66206;0.000;0.000;2023-02-15T10:03:54;99218.64;;;24.84;22.66
77212;BME280;66206;0.000;0.000;2023-02-15T10:06:23;99219.87;;;24.39;22.99
77212;BME280;66206;0.000;0.000;2023-02-15T10:08:51;99220.52;;;24.38;22.88
77212;BME280;66206;0.000;0.000;2023-02-15T10:11:14;99221.23;;;24.14;23.15
77212;BME280;66206;0.000;0.000;2023-02-15T10:13:43;99218.68;;;24.07;23.24
77212;BME280;66206;0.000;0.000;2023-02-15T10:16:13;99212.84;;;24.07;23.24
77212;BME280;66206;0.000;0.000;2023-02-15T10:18:42;99207.88;;;24.01;23.43
77212;BME280;66206;0.000;0.000;2023-02-15T10:21:08;99209.88;;;23.86;23.31
77212;BME280;66206;0.000;0.000;2023-02-15T10:23:37;99207.23;;;23.92;23.47
77212;BME280;66206;0.000;0.000;2023-02-15T10:26:01;99204.30;;;23.94;23.36
77212;BME280;66206;0.000;0.000;2023-02-15T10:28:26;99197.86;;;23.88;23.45
77212;BME280;66206;0.000;0.000;2023-02-15T10:30:57;99190.52;;;23.91;23.26
77212;BME280;66206;0.000;0.000;2023-02-15T10:33:27;99182.27;;;24.06;23.23
77212;BME280;66206;0.000;0.000;2023-02-15T10:35:55;99176.31;;;23.87;23.34
77212;BME280;66206;0.000;0.000;2023-02-15T10:38:21;99174.02;;;23.66;23.57
77212;BME280;66206;0.000;0.000;2023-02-15T10:40:48;99168.76;;;23.92;23.35
77212;BME280;66206;0.000;0.000;2023-02-15T10:43:20;99165.33;;;23.89;23.42
77212;BME280;66206;0.000;0.000;2023-02-15T10:45:47;99167.79;;;23.96;23.38
77212;BME280;66206;0.000;0.000;2023-02-15T10:48:16;99166.22;;;23.75;23.44
77212;BME280;66206;0.000;0.000;2023-02-15T10:50:42;99163.06;;;23.70;23.54
77212;BME280;66206;0.000;0.000;2023-02-15T10:53:10;99162.29;;;23.64;23.70
77212;BME280;66206;0.000;0.000;2023-02-15T10:55:38;99154.43;;;23.97;23.25
77212;BME280;66206;0.000;0.000;2023-02-15T10:58:05;99147.88;;;23.84;23.59
77212;BME280;66206;0.000;0.000;2023-02-15T11:00:30;99139.78;;;23.85;23.42
77212;BME280;66206;0.000;0.000;2023-02-15T11:03:01;99137.11;;;23.77;23.56
77212;BME280;66206;0.000;0.000;2023-02-15T11:05:25;99133.49;;;23.93;23.48
77212;BME280;66206;0.000;0.000;2023-02-15T11:07:48;99127.73;;;24.02;23.25
77212;BME280;66206;0.000;0.000;2023-02-15T11:10:21;99123.54;;;24.41;23.02
77212;BME280;66206;0.000;0.000;2023-02-15T11:12:40;99115.41;;;24.79;22.96
77212;BME280;66206;0.000;0.000;2023-02-15T11:15:11;99111.12;;;24.36;23.17
77212;BME280;66206;0.000;0.000;2023-02-15T11:15:14;99113.14;;;24.28;23.19
77212;BME280;66206;0.000;0.000;2023-02-15T11:17:39;99109.22;;;24.54;23.13
77212;BME280;66206;0.000;0.000;2023-02-15T11:20:14;99116.62;;;24.34;23.51
77212;BME280;66206;0.000;0.000;2023-02-15T11:22:38;99118.50;;;24.92;23.36
77212;BME280;66206;0.000;0.000;2023-02-15T11:25:14;99120.85;;;24.28;23.11
77212;BME280;66206;0.000;0.000;2023-02-15T11:27:32;99120.07;;;24.63;22.91
77212;BME280;66206;0.000;0.000;2023-02-15T11:29:59;99125.17;;;24.39;23.20
77212;BME280;66206;0.000;0.000;2023-02-15T11:32:27;99117.17;;;24.39;22.98
77212;BME280;66206;0.000;0.000;2023-02-15T11:34:56;99113.79;;;24.51;23.04
77212;BME280;66206;0.000;0.000;2023-02-15T11:37:27;99110.88;;;24.48;22.92
77212;BME280;66206;0.000;0.000;2023-02-15T11:39:54;99108.89;;;24.55;22.72
77212;BME280;66206;0.000;0.000;2023-02-15T11:42:21;99108.83;;;24.36;22.79
77212;BME280;66206;0.000;0.000;2023-02-15T11:44:53;99103.66;;;24.18;23.04
77212;BME280;66206;0.000;0.000;2023-02-15T11:47:16;99101.21;;;24.19;23.03
77212;BME280;66206;0.000;0.000;2023-02-15T11:49:42;99094.05;;;24.35;22.83
77212;BME280;66206;0.000;0.000;2023-02-15T11:52:12;99093.66;;;24.67;22.76
77212;BME280;66206;0.000;0.000;2023-02-15T11:54:41;99098.22;;;24.23;23.59
77212;BME280;66206;0.000;0.000;2023-02-15T11:57:11;99095.80;;;24.30;23.47
77212;BME280;66206;0.000;0.000;2023-02-15T11:59:34;99088.62;;;24.23;23.67
77212;BME280;66206;0.000;0.000;2023-02-15T12:02:02;99091.28;;;24.25;23.25
77212;BME280;66206;0.000;0.000;2023-02-15T12:04:30;99091.39;;;24.49;23.13
77212;BME280;66206;0.000;0.000;2023-02-15T12:07:00;99091.73;;;24.41;23.19
77212;BME280;66206;0.000;0.000;2023-02-15T12:09:29;99089.87;;;24.30;23.25
77212;BME280;66206;0.000;0.000;2023-02-15T12:11:53;99085.23;;;24.04;23.30
77212;BME280;66206;0.000;0.000;2023-02-15T12:14:19;99078.33;;;24.25;23.35
77212;BME280;66206;0.000;0.000;2023-02-15T12:16:46;99068.62;;;24.30;23.20
77212;BME280;66206;0.000;0.000;2023-02-15T12:19:21;99069.54;;;24.17;23.21
77212;BME280;66206;0.000;0.000;2023-02-15T12:21:40;99070.24;;;24.21;23.26
77212;BME280;66206;0.000;0.000;2023-02-15T12:24:16;99070.27;;;24.23;23.22
77212;BME280;66206;0.000;0.000;2023-02-15T12:26:34;99069.04;;;24.01;23.36
77212;BME280;66206;0.000;0.000;2023-02-15T12:29:01;99062.83;;;23.91;23.49
77212;BME280;66206;0.000;0.000;2023-02-15T12:31:31;99055.80;;;24.03;23.38
77212;BME280;66206;0.000;0.000;2023-02-15T12:33:59;99048.02;;;24.26;23.26
77212;BME280;66206;0.000;0.000;2023-02-15T12:36:29;99043.33;;;24.13;23.37
77212;BME280;66206;0.000;0.000;2023-02-15T12:39:05;99044.54;;;23.95;23.54
77212;BME280;66206;0.000;0.000;2023-02-15T12:41:23;99044.36;;;24.01;23.43
77212;BME280;66206;0.000;0.000;2023-02-15T12:44:02;99035.35;;;24.08;23.33
77212;BME280;66206;0.000;0.000;2023-02-15T12:46:20;99031.54;;;24.14;23.21
77212;BME280;66206;0.000;0.000;2023-02-15T12:48:50;99031.64;;;24.23;23.21
77212;BME280;66206;0.000;0.000;2023-02-15T12:51:15;99034.12;;;24.33;23.16
77212;BME280;66206;0.000;0.000;2023-02-15T12:53:41;99031.65;;;24.12;23.25
77212;BME280;66206;0.000;0.000;2023-02-15T12:56:09;99029.20;;;24.36;23.05
77212;BME280;66206;0.000;0.000;2023-02-15T12:58:37;99025.68;;;24.65;22.91
77212;BME280;66206;0.000;0.000;2023-02-15T13:01:09;99022.97;;;24.69;22.85
77212;BME280;66206;0.000;0.000;2023-02-15T13:03:31;99014.71;;;24.78;23.12
77212;BME280;66206;0.000;0.000;2023-02-15T13:05:58;99014.50;;;24.62;23.02